sensor_id;sensor_type;location;lat;lon;timestamp;P1;durP1;ratioP1;P2;durP2;ratioP2
1000;SDS011;489;47.806;12.858;2023-06-19T00:01:55;11.20;;;10.30;;
1000;SDS011;489;47.806;12.858;2023-06-19T00:03:57;11.40;;;10.30;;
1000;SDS011;489;47.806;12.858;2023-06-19T00:05:59;10.60;;;9.70;;
1000;SDS011;489;47.806;12.858;2023-06-19T00:08:01;11.33;;;10.33;;
1000;SDS011;489;47.806;12.858;2023-06-19T00:10:06;11.13;;;10.13;;
1000;SDS011;489;47.806;12.858;2023-06-19T00:12:08;12.07;;;10.97;;
1000;SDS011;489;47.806;12.858;2023-06-19T00:14:11;11.17;;;10.20;;
1000;SDS011;489;47.806;12.858;2023-06-19T00:16:13;11.40;;;10.50;;
1000;SDS011;489;47.806;12.858;2023-06-19T00:18:17;11.30;;;10.30;;
1000;SDS011;489;47.806;12.858;2023-06-19T00:20:20;11.13;;;10.10;;
1000;SDS011;489;47.806;12.858;2023-06-19T00:22:22;10.80;;;9.90;;
1000;SDS011;489;47.806;12.858;2023-06-19T00:24:45;10.87;;;9.90;;
1000;SDS011;489;47.806;12.858;2023-06-19T00:26:47;11.30;;;10.40;;
1000;SDS011;489;47.806;12.858;2023-06-19T00:28:50;11.03;;;10.07;;
1000;SDS011;489;47.806;12.858;2023-06-19T00:30:51;11.10;;;10.10;;
1000;SDS011;489;47.806;12.858;2023-06-19T00:32:55;10.60;;;9.63;;
1000;SDS011;489;47.806;12.858;2023-06-19T00:34:59;11.27;;;10.27;;
1000;SDS011;489;47.806;12.858;2023-06-19T00:37:03;10.73;;;9.70;;
1000;SDS011;489;47.806;12.858;2023-06-19T00:39:06;11.00;;;10.00;;
1000;SDS011;489;47.806;12.858;2023-06-19T00:41:08;10.67;;;9.77;;
1000;SDS011;489;47.806;12.858;2023-06-19T00:43:10;10.73;;;9.83;;
1000;SDS011;489;47.806;12.858;2023-06-19T00:45:12;11.03;;;10.03;;
1000;SDS011;489;47.806;12.858;2023-06-19T00:47:14;11.53;;;10.43;;
1000;SDS011;489;47.806;12.858;2023-06-19T00:49:16;12.70;;;11.60;;
1000;SDS011;489;47.806;12.858;2023-06-19T00:51:19;12.53;;;11.43;;
1000;SDS011;489;47.806;12.858;2023-06-19T00:53:22;12.17;;;10.93;;
1000;SDS011;489;47.806;12.858;2023-06-19T00:55:25;11.43;;;10.37;;
1000;SDS011;489;47.806;12.858;2023-06-19T00:57:27;12.40;;;11.30;;
1000;SDS011;489;47.806;12.858;2023-06-19T00:59:30;11.47;;;10.37;;
1000;SDS011;489;47.806;12.858;2023-06-19T01:01:32;10.73;;;9.80;;
1000;SDS011;489;47.806;12.858;2023-06-19T01:03:35;11.93;;;10.83;;
1000;SDS011;489;47.806;12.858;2023-06-19T01:05:37;11.73;;;10.70;;
1000;SDS011;489;47.806;12.858;2023-06-19T01:07:42;12.33;;;11.20;;
1000;SDS011;489;47.806;12.858;2023-06-19T01:09:46;10.80;;;9.80;;
1000;SDS011;489;47.806;12.858;2023-06-19T01:11:54;13.60;;;12.40;;
1000;SDS011;489;47.806;12.858;2023-06-19T01:13:58;11.80;;;10.80;;
1000;SDS011;489;47.806;12.858;2023-06-19T01:16:02;11.40;;;10.40;;
1000;SDS011;489;47.806;12.858;2023-06-19T01:18:05;11.97;;;10.97;;
1000;SDS011;489;47.806;12.858;2023-06-19T01:20:07;11.00;;;10.00;;
1000;SDS011;489;47.806;12.858;2023-06-19T01:22:23;10.73;;;9.83;;
1000;SDS011;489;47.806;12.858;2023-06-19T01:24:26;12.23;;;11.17;;
1000;SDS011;489;47.806;12.858;2023-06-19T01:26:27;11.60;;;10.60;;
1000;SDS011;489;47.806;12.858;2023-06-19T01:28:31;11.90;;;10.87;;
1000;SDS011;489;47.806;12.858;2023-06-19T01:30:33;11.60;;;10.60;;
1000;SDS011;489;47.806;12.858;2023-06-19T01:32:36;12.00;;;11.00;;
1000;SDS011;489;47.806;12.858;2023-06-19T01:34:43;13.17;;;12.03;;
1000;SDS011;489;47.806;12.858;2023-06-19T01:36:45;12.13;;;10.93;;
1000;SDS011;489;47.806;12.858;2023-06-19T01:38:50;12.17;;;11.07;;
1000;SDS011;489;47.806;12.858;2023-06-19T01:40:53;12.27;;;11.10;;
1000;SDS011;489;47.806;12.858;2023-06-19T01:42:56;11.70;;;10.67;;
1000;SDS011;489;47.806;12.858;2023-06-19T01:44:59;12.10;;;11.00;;
1000;SDS011;489;47.806;12.858;2023-06-19T01:47:07;11.90;;;10.90;;
1000;SDS011;489;47.806;12.858;2023-06-19T01:49:10;11.43;;;10.43;;
1000;SDS011;489;47.806;12.858;2023-06-19T01:51:12;12.20;;;11.10;;
1000;SDS011;489;47.806;12.858;2023-06-19T01:53:35;10.53;;;9.67;;
1000;SDS011;489;47.806;12.858;2023-06-19T01:55:39;10.63;;;9.80;;
1000;SDS011;489;47.806;12.858;2023-06-19T01:57:41;12.37;;;11.30;;
1000;SDS011;489;47.806;12.858;2023-06-19T01:59:43;12.93;;;11.67;;
1000;SDS011;489;47.806;12.858;2023-06-19T02:01:45;12.03;;;11.03;;
1000;SDS011;489;47.806;12.858;2023-06-19T02:03:47;11.80;;;10.80;;
1000;SDS011;489;47.806;12.858;2023-06-19T02:05:49;10.97;;;9.97;;
1000;SDS011;489;47.806;12.858;2023-06-19T02:07:51;12.27;;;11.27;;
1000;SDS011;489;47.806;12.858;2023-06-19T02:09:53;11.83;;;10.83;;
1000;SDS011;489;47.806;12.858;2023-06-19T02:11:57;10.60;;;9.70;;
1000;SDS011;489;47.806;12.858;2023-06-19T02:14:00;10.83;;;9.83;;
1000;SDS011;489;47.806;12.858;2023-06-19T02:16:03;11.80;;;10.80;;
1000;SDS011;489;47.806;12.858;2023-06-19T02:18:08;12.00;;;10.80;;
1000;SDS011;489;47.806;12.858;2023-06-19T02:20:10;11.70;;;10.63;;
1000;SDS011;489;47.806;12.858;2023-06-19T02:22:12;11.57;;;10.53;;
1000;SDS011;489;47.806;12.858;2023-06-19T02:24:14;13.40;;;11.97;;
1000;SDS011;489;47.806;12.858;2023-06-19T02:26:17;11.97;;;10.97;;
1000;SDS011;489;47.806;12.858;2023-06-19T02:28:22;13.20;;;11.80;;
1000;SDS011;489;47.806;12.858;2023-06-19T02:30:24;12.07;;;11.07;;
1000;SDS011;489;47.806;12.858;2023-06-19T02:32:26;12.27;;;11.07;;
1000;SDS011;489;47.806;12.858;2023-06-19T02:34:29;12.33;;;11.23;;
1000;SDS011;489;47.806;12.858;2023-06-19T02:36:31;12.23;;;11.13;;
1000;SDS011;489;47.806;12.858;2023-06-19T02:38:33;13.60;;;12.37;;
1000;SDS011;489;47.806;12.858;2023-06-19T02:40:36;11.60;;;10.60;;
1000;SDS011;489;47.806;12.858;2023-06-19T02:42:38;11.50;;;10.50;;
1000;SDS011;489;47.806;12.858;2023-06-19T02:44:41;11.80;;;10.77;;
1000;SDS011;489;47.806;12.858;2023-06-19T02:46:44;11.67;;;10.67;;
1000;SDS011;489;47.806;12.858;2023-06-19T02:48:45;13.27;;;12.17;;
1000;SDS011;489;47.806;12.858;2023-06-19T02:50:49;12.03;;;10.93;;
1000;SDS011;489;47.806;12.858;2023-06-19T02:52:51;11.93;;;10.83;;
1000;SDS011;489;47.806;12.858;2023-06-19T02:54:52;13.17;;;12.03;;
1000;SDS011;489;47.806;12.858;2023-06-19T02:56:55;11.77;;;10.67;;
1000;SDS011;489;47.806;12.858;2023-06-19T02:58:57;12.07;;;11.00;;
1000;SDS011;489;47.806;12.858;2023-06-19T03:01:01;13.23;;;12.00;;
1000;SDS011;489;47.806;12.858;2023-06-19T03:03:03;11.50;;;10.60;;
1000;SDS011;489;47.806;12.858;2023-06-19T03:05:06;11.43;;;10.43;;
1000;SDS011;489;47.806;12.858;2023-06-19T03:07:08;13.50;;;12.30;;
1000;SDS011;489;47.806;12.858;2023-06-19T03:09:10;12.30;;;11.20;;
1000;SDS011;489;47.806;12.858;2023-06-19T03:11:13;11.77;;;10.67;;
1000;SDS011;489;47.806;12.858;2023-06-19T03:13:15;12.20;;;11.10;;
1000;SDS011;489;47.806;12.858;2023-06-19T03:15:17;12.13;;;11.13;;
1000;SDS011;489;47.806;12.858;2023-06-19T03:17:24;12.20;;;10.80;;
1000;SDS011;489;47.806;12.858;2023-06-19T03:19:26;12.87;;;11.67;;
1000;SDS011;489;47.806;12.858;2023-06-19T03:21:28;11.57;;;10.60;;
1000;SDS011;489;47.806;12.858;2023-06-19T03:23:30;12.83;;;11.60;;
1000;SDS011;489;47.806;12.858;2023-06-19T03:25:32;11.30;;;10.30;;
1000;SDS011;489;47.806;12.858;2023-06-19T03:27:35;12.60;;;11.50;;
1000;SDS011;489;47.806;12.858;2023-06-19T03:29:38;12.33;;;11.27;;
1000;SDS011;489;47.806;12.858;2023-06-19T03:31:58;11.73;;;10.63;;
1000;SDS011;489;47.806;12.858;2023-06-19T03:34:07;12.90;;;11.70;;
1000;SDS011;489;47.806;12.858;2023-06-19T03:36:10;13.20;;;12.00;;
1000;SDS011;489;47.806;12.858;2023-06-19T03:38:22;12.10;;;11.10;;
1000;SDS011;489;47.806;12.858;2023-06-19T03:40:25;13.07;;;11.87;;
1000;SDS011;489;47.806;12.858;2023-06-19T03:42:29;12.73;;;11.63;;
1000;SDS011;489;47.806;12.858;2023-06-19T03:44:32;12.90;;;11.70;;
1000;SDS011;489;47.806;12.858;2023-06-19T03:46:35;11.73;;;10.73;;
1000;SDS011;489;47.806;12.858;2023-06-19T03:48:36;12.37;;;11.17;;
1000;SDS011;489;47.806;12.858;2023-06-19T03:50:40;13.03;;;11.87;;
1000;SDS011;489;47.806;12.858;2023-06-19T03:52:42;13.17;;;11.97;;
1000;SDS011;489;47.806;12.858;2023-06-19T03:54:44;12.77;;;11.67;;
1000;SDS011;489;47.806;12.858;2023-06-19T03:56:46;12.60;;;11.53;;
1000;SDS011;489;47.806;12.858;2023-06-19T03:58:48;12.50;;;11.40;;
1000;SDS011;489;47.806;12.858;2023-06-19T04:00:50;11.83;;;10.83;;
1000;SDS011;489;47.806;12.858;2023-06-19T04:02:53;11.83;;;10.80;;
1000;SDS011;489;47.806;12.858;2023-06-19T04:04:55;12.70;;;11.50;;
1000;SDS011;489;47.806;12.858;2023-06-19T04:06:58;13.90;;;12.70;;
1000;SDS011;489;47.806;12.858;2023-06-19T04:09:01;13.20;;;11.90;;
1000;SDS011;489;47.806;12.858;2023-06-19T04:11:03;13.60;;;12.30;;
1000;SDS011;489;47.806;12.858;2023-06-19T04:13:05;13.03;;;11.93;;
1000;SDS011;489;47.806;12.858;2023-06-19T04:15:08;12.33;;;11.23;;
1000;SDS011;489;47.806;12.858;2023-06-19T04:17:11;12.77;;;11.67;;
1000;SDS011;489;47.806;12.858;2023-06-19T04:19:14;11.97;;;10.90;;
1000;SDS011;489;47.806;12.858;2023-06-19T04:21:16;13.90;;;12.50;;
1000;SDS011;489;47.806;12.858;2023-06-19T04:23:19;13.77;;;12.53;;
1000;SDS011;489;47.806;12.858;2023-06-19T04:25:22;13.37;;;12.20;;
1000;SDS011;489;47.806;12.858;2023-06-19T04:27:24;13.50;;;12.30;;
1000;SDS011;489;47.806;12.858;2023-06-19T04:29:26;13.27;;;12.03;;
1000;SDS011;489;47.806;12.858;2023-06-19T04:31:31;12.70;;;11.50;;
1000;SDS011;489;47.806;12.858;2023-06-19T04:33:56;12.60;;;11.30;;
1000;SDS011;489;47.806;12.858;2023-06-19T04:35:58;12.93;;;11.83;;
1000;SDS011;489;47.806;12.858;2023-06-19T04:38:01;11.90;;;10.90;;
1000;SDS011;489;47.806;12.858;2023-06-19T04:40:05;11.87;;;10.83;;
1000;SDS011;489;47.806;12.858;2023-06-19T04:42:09;13.43;;;12.23;;
1000;SDS011;489;47.806;12.858;2023-06-19T04:44:10;12.47;;;11.30;;
1000;SDS011;489;47.806;12.858;2023-06-19T04:46:13;13.03;;;11.93;;
1000;SDS011;489;47.806;12.858;2023-06-19T04:48:21;12.60;;;11.50;;
1000;SDS011;489;47.806;12.858;2023-06-19T04:50:25;12.90;;;11.70;;
1000;SDS011;489;47.806;12.858;2023-06-19T04:52:27;12.63;;;11.43;;
1000;SDS011;489;47.806;12.858;2023-06-19T04:54:29;12.13;;;11.03;;
1000;SDS011;489;47.806;12.858;2023-06-19T04:56:34;12.47;;;11.27;;
1000;SDS011;489;47.806;12.858;2023-06-19T04:58:36;14.00;;;12.60;;
1000;SDS011;489;47.806;12.858;2023-06-19T05:00:44;12.47;;;11.37;;
1000;SDS011;489;47.806;12.858;2023-06-19T05:02:49;13.50;;;12.20;;
1000;SDS011;489;47.806;12.858;2023-06-19T05:04:51;13.10;;;11.90;;
1000;SDS011;489;47.806;12.858;2023-06-19T05:06:54;13.50;;;12.27;;
1000;SDS011;489;47.806;12.858;2023-06-19T05:08:56;14.00;;;11.57;;
1000;SDS011;489;47.806;12.858;2023-06-19T05:10:58;12.30;;;11.27;;
1000;SDS011;489;47.806;12.858;2023-06-19T05:13:01;14.20;;;12.80;;
1000;SDS011;489;47.806;12.858;2023-06-19T05:15:03;12.90;;;11.70;;
1000;SDS011;489;47.806;12.858;2023-06-19T05:17:06;14.43;;;12.83;;
1000;SDS011;489;47.806;12.858;2023-06-19T05:19:09;13.30;;;12.07;;
1000;SDS011;489;47.806;12.858;2023-06-19T05:21:11;13.57;;;12.40;;
1000;SDS011;489;47.806;12.858;2023-06-19T05:23:13;13.10;;;11.80;;
1000;SDS011;489;47.806;12.858;2023-06-19T05:25:15;13.37;;;12.17;;
1000;SDS011;489;47.806;12.858;2023-06-19T05:27:17;13.50;;;12.30;;
1000;SDS011;489;47.806;12.858;2023-06-19T05:29:21;13.43;;;12.33;;
1000;SDS011;489;47.806;12.858;2023-06-19T05:31:23;13.20;;;12.00;;
1000;SDS011;489;47.806;12.858;2023-06-19T05:33:25;13.10;;;11.90;;
1000;SDS011;489;47.806;12.858;2023-06-19T05:35:27;14.23;;;12.93;;
1000;SDS011;489;47.806;12.858;2023-06-19T05:37:30;13.73;;;12.53;;
1000;SDS011;489;47.806;12.858;2023-06-19T05:39:32;14.93;;;13.53;;
1000;SDS011;489;47.806;12.858;2023-06-19T05:41:34;14.80;;;13.50;;
1000;SDS011;489;47.806;12.858;2023-06-19T05:43:58;14.27;;;13.03;;
1000;SDS011;489;47.806;12.858;2023-06-19T05:46:01;16.60;;;15.00;;
1000;SDS011;489;47.806;12.858;2023-06-19T05:48:03;15.33;;;13.43;;
1000;SDS011;489;47.806;12.858;2023-06-19T05:50:06;13.07;;;11.97;;
1000;SDS011;489;47.806;12.858;2023-06-19T05:52:08;13.53;;;12.17;;
1000;SDS011;489;47.806;12.858;2023-06-19T05:54:10;13.33;;;12.13;;
1000;SDS011;489;47.806;12.858;2023-06-19T05:56:12;13.20;;;12.00;;
1000;SDS011;489;47.806;12.858;2023-06-19T05:58:36;15.33;;;13.73;;
1000;SDS011;489;47.806;12.858;2023-06-19T06:00:38;14.37;;;12.97;;
1000;SDS011;489;47.806;12.858;2023-06-19T06:02:41;14.30;;;13.07;;
1000;SDS011;489;47.806;12.858;2023-06-19T06:04:44;13.63;;;12.30;;
1000;SDS011;489;47.806;12.858;2023-06-19T06:06:46;13.13;;;11.80;;
1000;SDS011;489;47.806;12.858;2023-06-19T06:08:48;13.33;;;12.07;;
1000;SDS011;489;47.806;12.858;2023-06-19T06:10:51;12.73;;;11.63;;
1000;SDS011;489;47.806;12.858;2023-06-19T06:12:53;12.50;;;11.40;;
1000;SDS011;489;47.806;12.858;2023-06-19T06:14:55;12.83;;;11.70;;
1000;SDS011;489;47.806;12.858;2023-06-19T06:16:57;12.03;;;10.93;;
1000;SDS011;489;47.806;12.858;2023-06-19T06:19:01;12.20;;;11.10;;
1000;SDS011;489;47.806;12.858;2023-06-19T06:21:03;13.00;;;11.90;;
1000;SDS011;489;47.806;12.858;2023-06-19T06:23:05;13.80;;;12.60;;
1000;SDS011;489;47.806;12.858;2023-06-19T06:25:07;15.00;;;13.60;;
1000;SDS011;489;47.806;12.858;2023-06-19T06:27:10;13.10;;;11.90;;
1000;SDS011;489;47.806;12.858;2023-06-19T06:29:12;13.10;;;11.87;;
1000;SDS011;489;47.806;12.858;2023-06-19T06:31:14;12.47;;;11.40;;
1000;SDS011;489;47.806;12.858;2023-06-19T06:33:16;13.70;;;12.37;;
1000;SDS011;489;47.806;12.858;2023-06-19T06:35:20;13.47;;;12.33;;
1000;SDS011;489;47.806;12.858;2023-06-19T06:37:22;12.50;;;11.30;;
1000;SDS011;489;47.806;12.858;2023-06-19T06:39:23;13.07;;;11.70;;
1000;SDS011;489;47.806;12.858;2023-06-19T06:41:26;11.93;;;10.93;;
1000;SDS011;489;47.806;12.858;2023-06-19T06:43:28;12.60;;;11.40;;
1000;SDS011;489;47.806;12.858;2023-06-19T06:45:30;12.97;;;11.77;;
1000;SDS011;489;47.806;12.858;2023-06-19T06:47:32;13.17;;;11.87;;
1000;SDS011;489;47.806;12.858;2023-06-19T06:49:36;12.60;;;11.40;;
1000;SDS011;489;47.806;12.858;2023-06-19T06:51:39;12.77;;;11.63;;
1000;SDS011;489;47.806;12.858;2023-06-19T06:53:42;13.30;;;12.10;;
1000;SDS011;489;47.806;12.858;2023-06-19T06:55:44;12.57;;;11.27;;
1000;SDS011;489;47.806;12.858;2023-06-19T06:57:46;13.60;;;12.40;;
1000;SDS011;489;47.806;12.858;2023-06-19T06:59:48;11.57;;;10.47;;
1000;SDS011;489;47.806;12.858;2023-06-19T07:01:50;12.53;;;11.33;;
1000;SDS011;489;47.806;12.858;2023-06-19T07:03:52;13.43;;;12.30;;
1000;SDS011;489;47.806;12.858;2023-06-19T07:05:55;11.10;;;10.20;;
1000;SDS011;489;47.806;12.858;2023-06-19T07:08:20;12.17;;;11.17;;
1000;SDS011;489;47.806;12.858;2023-06-19T07:10:22;11.97;;;10.93;;
1000;SDS011;489;47.806;12.858;2023-06-19T07:12:27;12.33;;;11.17;;
1000;SDS011;489;47.806;12.858;2023-06-19T07:14:29;12.03;;;11.00;;
1000;SDS011;489;47.806;12.858;2023-06-19T07:16:31;11.77;;;10.67;;
1000;SDS011;489;47.806;12.858;2023-06-19T07:18:33;12.07;;;10.87;;
1000;SDS011;489;47.806;12.858;2023-06-19T07:20:35;12.30;;;11.17;;
1000;SDS011;489;47.806;12.858;2023-06-19T07:22:37;11.93;;;10.77;;
1000;SDS011;489;47.806;12.858;2023-06-19T07:24:41;12.97;;;11.77;;
1000;SDS011;489;47.806;12.858;2023-06-19T07:26:43;11.60;;;10.40;;
1000;SDS011;489;47.806;12.858;2023-06-19T07:28:45;13.70;;;12.40;;
1000;SDS011;489;47.806;12.858;2023-06-19T07:30:46;13.90;;;12.60;;
1000;SDS011;489;47.806;12.858;2023-06-19T07:32:49;12.87;;;11.77;;
1000;SDS011;489;47.806;12.858;2023-06-19T07:34:51;11.33;;;10.43;;
1000;SDS011;489;47.806;12.858;2023-06-19T07:36:53;12.27;;;11.07;;
1000;SDS011;489;47.806;12.858;2023-06-19T07:38:55;12.70;;;11.50;;
1000;SDS011;489;47.806;12.858;2023-06-19T07:40:58;11.87;;;10.70;;
1000;SDS011;489;47.806;12.858;2023-06-19T07:43:00;13.03;;;11.83;;
1000;SDS011;489;47.806;12.858;2023-06-19T07:45:03;13.23;;;12.03;;
1000;SDS011;489;47.806;12.858;2023-06-19T07:47:06;12.93;;;11.80;;
1000;SDS011;489;47.806;12.858;2023-06-19T07:49:08;11.97;;;10.97;;
1000;SDS011;489;47.806;12.858;2023-06-19T07:51:10;12.93;;;11.73;;
1000;SDS011;489;47.806;12.858;2023-06-19T07:53:12;11.93;;;10.67;;
1000;SDS011;489;47.806;12.858;2023-06-19T07:55:14;12.67;;;11.60;;
1000;SDS011;489;47.806;12.858;2023-06-19T07:57:17;11.90;;;10.80;;
1000;SDS011;489;47.806;12.858;2023-06-19T07:59:19;12.97;;;11.60;;
1000;SDS011;489;47.806;12.858;2023-06-19T08:01:22;11.87;;;10.87;;
1000;SDS011;489;47.806;12.858;2023-06-19T08:03:23;11.20;;;10.20;;
1000;SDS011;489;47.806;12.858;2023-06-19T08:05:25;12.37;;;11.07;;
1000;SDS011;489;47.806;12.858;2023-06-19T08:07:28;12.00;;;11.00;;
1000;SDS011;489;47.806;12.858;2023-06-19T08:09:30;11.33;;;10.33;;
1000;SDS011;489;47.806;12.858;2023-06-19T08:11:32;12.10;;;11.00;;
1000;SDS011;489;47.806;12.858;2023-06-19T08:13:36;12.10;;;11.00;;
1000;SDS011;489;47.806;12.858;2023-06-19T08:15:38;11.07;;;10.07;;
1000;SDS011;489;47.806;12.858;2023-06-19T08:17:41;11.97;;;10.90;;
1000;SDS011;489;47.806;12.858;2023-06-19T08:19:43;11.87;;;10.80;;
1000;SDS011;489;47.806;12.858;2023-06-19T08:21:45;12.10;;;11.00;;
1000;SDS011;489;47.806;12.858;2023-06-19T08:23:47;11.77;;;10.77;;
1000;SDS011;489;47.806;12.858;2023-06-19T08:25:50;11.10;;;10.20;;
1000;SDS011;489;47.806;12.858;2023-06-19T08:27:52;11.33;;;10.40;;
1000;SDS011;489;47.806;12.858;2023-06-19T08:29:55;11.20;;;10.30;;
1000;SDS011;489;47.806;12.858;2023-06-19T08:31:57;11.60;;;10.70;;
1000;SDS011;489;47.806;12.858;2023-06-19T08:34:00;12.47;;;11.37;;
1000;SDS011;489;47.806;12.858;2023-06-19T08:36:06;11.60;;;10.60;;
1000;SDS011;489;47.806;12.858;2023-06-19T08:38:11;13.03;;;11.83;;
1000;SDS011;489;47.806;12.858;2023-06-19T08:40:13;11.70;;;10.70;;
1000;SDS011;489;47.806;12.858;2023-06-19T08:42:15;11.23;;;10.23;;
1000;SDS011;489;47.806;12.858;2023-06-19T08:44:17;11.10;;;10.00;;
1000;SDS011;489;47.806;12.858;2023-06-19T08:46:21;12.17;;;11.03;;
1000;SDS011;489;47.806;12.858;2023-06-19T08:48:26;12.00;;;10.80;;
1000;SDS011;489;47.806;12.858;2023-06-19T08:50:29;12.00;;;11.00;;
1000;SDS011;489;47.806;12.858;2023-06-19T08:52:31;10.20;;;9.33;;
1000;SDS011;489;47.806;12.858;2023-06-19T08:54:35;12.60;;;11.50;;
1000;SDS011;489;47.806;12.858;2023-06-19T08:56:44;12.67;;;11.50;;
1000;SDS011;489;47.806;12.858;2023-06-19T08:58:48;10.87;;;9.87;;
1000;SDS011;489;47.806;12.858;2023-06-19T09:00:50;11.97;;;10.60;;
1000;SDS011;489;47.806;12.858;2023-06-19T09:02:58;12.07;;;10.87;;
1000;SDS011;489;47.806;12.858;2023-06-19T09:05:08;11.03;;;10.13;;
1000;SDS011;489;47.806;12.858;2023-06-19T09:07:12;11.30;;;10.30;;
1000;SDS011;489;47.806;12.858;2023-06-19T09:09:18;11.60;;;10.60;;
1000;SDS011;489;47.806;12.858;2023-06-19T09:11:21;12.67;;;11.37;;
1000;SDS011;489;47.806;12.858;2023-06-19T09:13:23;10.97;;;10.07;;
1000;SDS011;489;47.806;12.858;2023-06-19T09:15:28;11.70;;;10.80;;
1000;SDS011;489;47.806;12.858;2023-06-19T09:17:32;9.93;;;9.13;;
1000;SDS011;489;47.806;12.858;2023-06-19T09:19:48;11.40;;;10.40;;
1000;SDS011;489;47.806;12.858;2023-06-19T09:21:51;11.47;;;10.47;;
1000;SDS011;489;47.806;12.858;2023-06-19T09:23:53;11.27;;;10.23;;
1000;SDS011;489;47.806;12.858;2023-06-19T09:26:03;11.30;;;10.30;;
1000;SDS011;489;47.806;12.858;2023-06-19T09:28:15;11.90;;;10.90;;
1000;SDS011;489;47.806;12.858;2023-06-19T09:30:18;11.80;;;10.73;;
1000;SDS011;489;47.806;12.858;2023-06-19T09:32:22;10.97;;;10.07;;
1000;SDS011;489;47.806;12.858;2023-06-19T09:34:26;11.03;;;10.13;;
1000;SDS011;489;47.806;12.858;2023-06-19T09:36:30;11.33;;;10.43;;
1000;SDS011;489;47.806;12.858;2023-06-19T09:38:34;10.50;;;9.50;;
1000;SDS011;489;47.806;12.858;2023-06-19T09:40:40;10.20;;;9.40;;
1000;SDS011;489;47.806;12.858;2023-06-19T09:42:42;11.27;;;10.37;;
1000;SDS011;489;47.806;12.858;2023-06-19T09:44:55;10.27;;;9.53;;
1000;SDS011;489;47.806;12.858;2023-06-19T09:47:01;9.77;;;8.97;;
1000;SDS011;489;47.806;12.858;2023-06-19T09:49:04;9.37;;;8.67;;
1000;SDS011;489;47.806;12.858;2023-06-19T09:51:09;8.40;;;7.70;;
1000;SDS011;489;47.806;12.858;2023-06-19T09:53:13;9.40;;;8.60;;
1000;SDS011;489;47.806;12.858;2023-06-19T09:55:16;8.90;;;8.20;;
1000;SDS011;489;47.806;12.858;2023-06-19T09:57:18;9.10;;;8.30;;
1000;SDS011;489;47.806;12.858;2023-06-19T09:59:20;9.10;;;8.30;;
1000;SDS011;489;47.806;12.858;2023-06-19T10:01:22;8.57;;;7.87;;
1000;SDS011;489;47.806;12.858;2023-06-19T10:03:30;8.37;;;7.67;;
1000;SDS011;489;47.806;12.858;2023-06-19T10:05:33;8.27;;;7.47;;
1000;SDS011;489;47.806;12.858;2023-06-19T10:07:36;8.93;;;8.13;;
1000;SDS011;489;47.806;12.858;2023-06-19T10:09:39;9.30;;;8.60;;
1000;SDS011;489;47.806;12.858;2023-06-19T10:11:47;8.23;;;7.53;;
1000;SDS011;489;47.806;12.858;2023-06-19T10:13:51;9.00;;;8.30;;
1000;SDS011;489;47.806;12.858;2023-06-19T10:15:53;8.30;;;7.60;;
1000;SDS011;489;47.806;12.858;2023-06-19T10:17:59;8.60;;;8.00;;
1000;SDS011;489;47.806;12.858;2023-06-19T10:20:03;9.27;;;8.47;;
1000;SDS011;489;47.806;12.858;2023-06-19T10:22:19;9.10;;;8.20;;
1000;SDS011;489;47.806;12.858;2023-06-19T10:24:22;9.30;;;8.60;;
1000;SDS011;489;47.806;12.858;2023-06-19T10:26:32;9.47;;;8.47;;
1000;SDS011;489;47.806;12.858;2023-06-19T10:28:35;9.25;;;8.45;;
1000;SDS011;489;47.806;12.858;2023-06-19T10:30:37;8.87;;;8.07;;
1000;SDS011;489;47.806;12.858;2023-06-19T10:32:39;9.00;;;7.97;;
1000;SDS011;489;47.806;12.858;2023-06-19T10:34:44;9.20;;;8.30;;
1000;SDS011;489;47.806;12.858;2023-06-19T10:36:47;9.13;;;8.23;;
1000;SDS011;489;47.806;12.858;2023-06-19T10:38:49;8.80;;;8.10;;
1000;SDS011;489;47.806;12.858;2023-06-19T10:40:52;9.30;;;8.60;;
1000;SDS011;489;47.806;12.858;2023-06-19T10:42:55;8.80;;;8.10;;
1000;SDS011;489;47.806;12.858;2023-06-19T10:44:59;9.60;;;8.80;;
1000;SDS011;489;47.806;12.858;2023-06-19T10:47:05;8.00;;;7.40;;
1000;SDS011;489;47.806;12.858;2023-06-19T10:49:08;8.97;;;8.27;;
1000;SDS011;489;47.806;12.858;2023-06-19T10:51:17;9.50;;;8.60;;
1000;SDS011;489;47.806;12.858;2023-06-19T10:53:23;9.30;;;8.50;;
1000;SDS011;489;47.806;12.858;2023-06-19T10:55:26;8.50;;;7.80;;
1000;SDS011;489;47.806;12.858;2023-06-19T10:57:47;8.47;;;7.77;;
1000;SDS011;489;47.806;12.858;2023-06-19T10:59:52;9.83;;;9.10;;
1000;SDS011;489;47.806;12.858;2023-06-19T11:01:53;8.98;;;8.27;;
1000;SDS011;489;47.806;12.858;2023-06-19T11:03:55;9.47;;;8.67;;
1000;SDS011;489;47.806;12.858;2023-06-19T11:05:57;9.30;;;8.60;;
1000;SDS011;489;47.806;12.858;2023-06-19T11:07:59;8.90;;;8.10;;
1000;SDS011;489;47.806;12.858;2023-06-19T11:10:01;8.73;;;8.00;;
1000;SDS011;489;47.806;12.858;2023-06-19T11:12:04;8.82;;;8.02;;
1000;SDS011;489;47.806;12.858;2023-06-19T11:14:08;8.82;;;8.07;;
1000;SDS011;489;47.806;12.858;2023-06-19T11:16:15;9.07;;;8.38;;
1000;SDS011;489;47.806;12.858;2023-06-19T11:18:18;8.85;;;8.15;;
1000;SDS011;489;47.806;12.858;2023-06-19T11:20:20;9.50;;;8.80;;
1000;SDS011;489;47.806;12.858;2023-06-19T11:22:22;9.63;;;8.82;;
1000;SDS011;489;47.806;12.858;2023-06-19T11:24:23;9.10;;;8.40;;
1000;SDS011;489;47.806;12.858;2023-06-19T11:26:26;9.68;;;8.88;;
1000;SDS011;489;47.806;12.858;2023-06-19T11:28:28;8.93;;;8.23;;
1000;SDS011;489;47.806;12.858;2023-06-19T11:30:30;8.15;;;7.45;;
1000;SDS011;489;47.806;12.858;2023-06-19T11:32:35;9.88;;;9.07;;
1000;SDS011;489;47.806;12.858;2023-06-19T11:34:41;8.38;;;7.72;;
1000;SDS011;489;47.806;12.858;2023-06-19T11:36:45;9.35;;;8.65;;
1000;SDS011;489;47.806;12.858;2023-06-19T11:38:48;9.13;;;8.32;;
1000;SDS011;489;47.806;12.858;2023-06-19T11:40:52;8.70;;;7.97;;
1000;SDS011;489;47.806;12.858;2023-06-19T11:42:56;9.20;;;8.40;;
1000;SDS011;489;47.806;12.858;2023-06-19T11:44:59;9.15;;;8.27;;
1000;SDS011;489;47.806;12.858;2023-06-19T11:47:02;8.82;;;8.13;;
1000;SDS011;489;47.806;12.858;2023-06-19T11:49:11;9.43;;;8.70;;
1000;SDS011;489;47.806;12.858;2023-06-19T11:51:14;7.57;;;7.00;;
1000;SDS011;489;47.806;12.858;2023-06-19T11:53:17;8.48;;;7.88;;
1000;SDS011;489;47.806;12.858;2023-06-19T11:55:20;9.02;;;8.23;;
1000;SDS011;489;47.806;12.858;2023-06-19T11:57:22;8.77;;;7.97;;
1000;SDS011;489;47.806;12.858;2023-06-19T11:59:24;8.80;;;8.10;;
1000;SDS011;489;47.806;12.858;2023-06-19T12:01:26;8.90;;;8.20;;
1000;SDS011;489;47.806;12.858;2023-06-19T12:03:28;8.80;;;8.10;;
1000;SDS011;489;47.806;12.858;2023-06-19T12:05:31;9.00;;;8.20;;
1000;SDS011;489;47.806;12.858;2023-06-19T12:07:33;9.13;;;8.43;;
1000;SDS011;489;47.806;12.858;2023-06-19T12:09:36;8.95;;;8.15;;
1000;SDS011;489;47.806;12.858;2023-06-19T12:11:39;9.70;;;8.82;;
1000;SDS011;489;47.806;12.858;2023-06-19T12:13:41;8.48;;;7.68;;
1000;SDS011;489;47.806;12.858;2023-06-19T12:15:43;9.57;;;8.77;;
1000;SDS011;489;47.806;12.858;2023-06-19T12:17:45;9.27;;;8.57;;
1000;SDS011;489;47.806;12.858;2023-06-19T12:19:47;9.68;;;8.88;;
1000;SDS011;489;47.806;12.858;2023-06-19T12:21:51;7.40;;;6.80;;
1000;SDS011;489;47.806;12.858;2023-06-19T12:23:53;10.50;;;7.35;;
1000;SDS011;489;47.806;12.858;2023-06-19T12:25:55;9.07;;;8.38;;
1000;SDS011;489;47.806;12.858;2023-06-19T12:27:57;9.15;;;8.45;;
1000;SDS011;489;47.806;12.858;2023-06-19T12:29:59;8.88;;;8.18;;
1000;SDS011;489;47.806;12.858;2023-06-19T12:32:01;8.70;;;8.00;;